createdAt,value
2018-07-02T00:02:00.727Z,50.97
2018-07-02T00:04:27.655Z,50.27
2018-07-02T00:07:06.037Z,50.67
2018-07-02T00:09:32.898Z,50.45
2018-07-02T00:11:59.934Z,51.39
2018-07-02T00:14:26.783Z,50.71
2018-07-02T00:16:53.648Z,50.83
2018-07-02T00:19:20.658Z,51.04
2018-07-02T00:21:47.586Z,50.87
2018-07-02T00:24:14.606Z,50.22
2018-07-02T00:26:41.471Z,51.18
2018-07-02T00:29:08.323Z,51.41
2018-07-02T00:31:35.199Z,50.98
2018-07-02T00:34:03.079Z,51.44
2018-07-02T00:36:29.972Z,51.83
2018-07-02T00:38:56.835Z,52.05
2018-07-02T00:41:23.680Z,51.45
2018-07-02T00:43:50.535Z,52.11
2018-07-02T00:46:17.419Z,51.54
2018-07-02T00:48:44.290Z,52.66
2018-07-02T00:51:11.135Z,52.31
2018-07-02T00:53:37.999Z,51.45
2018-07-02T00:56:05.026Z,52.71
2018-07-02T00:58:31.906Z,52.69
2018-07-02T01:00:58.758Z,52.10
2018-07-02T01:03:25.627Z,52.97
2018-07-02T01:05:52.487Z,52.94
2018-07-02T01:08:19.347Z,51.71
2018-07-02T01:10:46.515Z,52.09
2018-07-02T01:13:13.368Z,51.88
2018-07-02T01:15:40.224Z,51.95
2018-07-02T01:18:07.083Z,52.01
2018-07-02T01:20:36.003Z,52.82
2018-07-02T01:23:02.867Z,52.68
2018-07-02T01:25:29.718Z,53.22
2018-07-02T01:27:56.562Z,53.37
2018-07-02T01:30:23.430Z,53.03
2018-07-02T01:32:50.300Z,53.20
2018-07-02T01:35:17.158Z,53.31
2018-07-02T01:37:44.014Z,53.57
2018-07-02T01:40:10.902Z,52.98
2018-07-02T01:42:37.760Z,52.81
2018-07-02T01:45:04.711Z,53.23
2018-07-02T01:47:31.583Z,52.33
2018-07-02T01:49:58.450Z,53.42
2018-07-02T01:52:25.306Z,53.44
2018-07-02T01:54:52.155Z,54.13
2018-07-02T01:57:19.015Z,54.04
2018-07-02T01:59:45.869Z,53.62
2018-07-02T02:02:12.798Z,54.28
2018-07-02T02:04:39.658Z,54.57
2018-07-02T02:07:06.527Z,54.56
2018-07-02T02:09:33.387Z,53.91
2018-07-02T02:12:00.246Z,53.98
2018-07-02T02:14:27.131Z,53.35
2018-07-02T02:16:53.995Z,53.92
2018-07-02T02:19:20.863Z,54.19
2018-07-02T02:21:47.722Z,53.55
2018-07-02T02:24:14.576Z,53.45
2018-07-02T02:26:41.427Z,54.48
2018-07-02T02:29:08.279Z,54.01
2018-07-02T02:31:35.155Z,54.32
2018-07-02T02:34:02.011Z,54.17
2018-07-02T02:36:28.866Z,54.52
2018-07-02T02:38:55.829Z,54.89
2018-07-02T02:41:22.691Z,55.75
2018-07-02T02:43:49.551Z,55.22
2018-07-02T02:46:16.439Z,55.81
2018-07-02T02:48:43.295Z,55.66
2018-07-02T02:51:12.223Z,56.24
2018-07-02T02:53:39.081Z,56.48
2018-07-02T02:56:05.947Z,56.80
2018-07-02T02:58:32.810Z,56.93
2018-07-02T03:00:59.659Z,57.36
2018-07-02T03:03:26.527Z,56.84
2018-07-02T03:05:53.379Z,57.32
2018-07-02T03:08:20.240Z,57.56
2018-07-02T03:10:47.115Z,58.52
2018-07-02T03:13:13.976Z,57.75
2018-07-02T03:15:40.835Z,58.75
2018-07-02T03:18:07.728Z,57.44
2018-07-02T03:20:34.600Z,57.91
2018-07-02T03:23:01.455Z,58.26
2018-07-02T03:25:28.299Z,58.56
2018-07-02T03:27:55.155Z,58.58
2018-07-02T03:30:22.016Z,58.87
2018-07-02T03:32:48.875Z,58.45
2018-07-02T03:35:15.751Z,59.13
2018-07-02T03:37:42.656Z,59.08
2018-07-02T03:40:09.531Z,59.42
2018-07-02T03:42:36.396Z,58.17
2018-07-02T03:45:03.247Z,57.35
2018-07-02T03:47:30.106Z,56.30
2018-07-02T03:49:56.978Z,54.49
2018-07-02T03:52:23.843Z,54.45
2018-07-02T03:54:50.691Z,52.89
2018-07-02T03:57:17.555Z,52.96
2018-07-02T03:59:44.416Z,52.83
2018-07-02T04:02:11.315Z,51.23
2018-07-02T04:04:38.221Z,51.20
2018-07-02T04:07:05.084Z,50.56
2018-07-02T04:09:31.946Z,49.08
2018-07-02T04:11:58.898Z,48.96
2018-07-02T04:14:25.778Z,49.01
2018-07-02T04:16:52.591Z,49.96
2018-07-02T04:19:19.557Z,48.16
2018-07-02T04:21:47.227Z,49.00
2018-07-02T04:24:14.174Z,48.65
2018-07-02T04:26:41.730Z,48.84
2018-07-02T04:29:08.761Z,48.13
2018-07-02T04:31:36.696Z,47.36
2018-07-02T04:34:03.814Z,48.26
2018-07-02T04:36:30.819Z,47.48
2018-07-02T04:38:57.711Z,46.23
2018-07-02T04:41:24.712Z,46.15
2018-07-02T04:43:51.756Z,47.25
2018-07-02T04:46:18.643Z,45.86
2018-07-02T04:48:45.515Z,46.39
2018-07-02T04:51:12.424Z,46.23
2018-07-02T04:53:39.404Z,46.19
2018-07-02T04:56:06.295Z,46.23
2018-07-02T04:58:33.171Z,46.15
2018-07-02T05:01:00.055Z,45.51
2018-07-02T05:03:26.914Z,46.44
2018-07-02T05:05:53.790Z,47.30
2018-07-02T05:08:20.676Z,47.08
2018-07-02T05:10:47.547Z,48.24
2018-07-02T05:13:14.427Z,48.05
2018-07-02T05:15:41.322Z,48.41
2018-07-02T05:18:08.191Z,48.15
2018-07-02T05:20:35.092Z,48.87
2018-07-02T05:23:02.002Z,47.25
2018-07-02T05:25:28.876Z,47.35
2018-07-02T05:27:55.747Z,48.05
2018-07-02T05:30:22.635Z,47.63
2018-07-02T05:32:49.511Z,48.83
2018-07-02T05:35:16.393Z,47.63
2018-07-02T05:37:43.272Z,48.08
2018-07-02T05:40:10.281Z,48.27
2018-07-02T05:42:37.047Z,46.31
2018-07-02T05:45:03.927Z,46.80
2018-07-02T05:47:30.803Z,48.28
2018-07-02T05:49:57.678Z,47.95
2018-07-02T05:52:24.563Z,46.65
2018-07-02T05:54:51.441Z,45.91
2018-07-02T05:57:18.311Z,45.83
2018-07-02T05:59:45.192Z,46.50
2018-07-02T06:02:12.067Z,46.25
2018-07-02T06:04:38.955Z,46.58
2018-07-02T06:07:05.852Z,46.35
2018-07-02T06:09:32.731Z,45.88
2018-07-02T06:12:01.596Z,45.17
2018-07-02T06:14:28.478Z,44.67
2018-07-02T06:16:55.359Z,46.99
2018-07-02T06:19:22.243Z,45.70
2018-07-02T06:21:49.098Z,44.28
2018-07-02T06:24:15.958Z,45.57
2018-07-02T06:26:42.812Z,44.65
2018-07-02T06:29:09.665Z,44.94
2018-07-02T06:31:36.527Z,44.20
2018-07-02T06:34:03.387Z,44.11
2018-07-02T06:36:30.244Z,43.03
2018-07-02T06:38:57.115Z,43.48
2018-07-02T06:41:23.958Z,43.15
2018-07-02T06:43:50.898Z,42.41
2018-07-02T06:46:17.748Z,42.90
2018-07-02T06:48:44.615Z,41.98
2018-07-02T06:51:11.495Z,41.80
2018-07-02T06:53:38.355Z,41.41
2018-07-02T06:56:05.226Z,43.01
2018-07-02T06:58:32.843Z,42.76
2018-07-02T07:00:59.675Z,43.41
2018-07-02T07:03:26.548Z,43.18
2018-07-02T07:05:53.416Z,42.94
2018-07-02T07:08:20.279Z,42.43
2018-07-02T07:10:47.131Z,41.07
2018-07-02T07:13:14.027Z,41.70
2018-07-02T07:15:40.953Z,40.67
2018-07-02T07:18:07.750Z,41.32
2018-07-02T07:20:34.691Z,40.63
2018-07-02T07:23:01.636Z,41.90
2018-07-02T07:25:28.487Z,41.26
2018-07-02T07:27:55.339Z,41.41
2018-07-02T07:30:22.195Z,40.70
2018-07-02T07:32:49.052Z,41.77
2018-07-02T07:35:15.911Z,41.33
2018-07-02T07:37:42.772Z,41.38
2018-07-02T07:40:09.614Z,41.29
2018-07-02T07:42:36.463Z,41.28
2018-07-02T07:45:03.469Z,40.81
2018-07-02T07:47:30.420Z,40.78
2018-07-02T07:49:57.287Z,40.55
2018-07-02T07:52:24.139Z,40.28
2018-07-02T07:54:51.095Z,40.28
2018-07-02T07:57:17.966Z,40.87
2018-07-02T07:59:44.875Z,38.29
2018-07-02T08:02:11.743Z,38.35
2018-07-02T08:04:38.607Z,38.84
2018-07-02T08:07:05.561Z,40.41
2018-07-02T08:09:32.419Z,39.21
2018-07-02T08:11:59.292Z,38.17
2018-07-02T08:14:26.183Z,39.02
2018-07-02T08:16:53.051Z,38.75
2018-07-02T08:19:19.921Z,37.82
2018-07-02T08:21:47.235Z,37.59
2018-07-02T08:24:14.091Z,37.14
2018-07-02T08:26:40.939Z,37.52
2018-07-02T08:29:07.799Z,36.31
2018-07-02T08:31:34.657Z,37.84
2018-07-02T08:34:01.528Z,37.55
2018-07-02T08:36:28.412Z,36.94
2018-07-02T08:38:55.283Z,37.54
2018-07-02T08:41:22.153Z,36.08
2018-07-02T08:43:49.052Z,36.72
2018-07-02T08:46:15.927Z,36.48
2018-07-02T08:48:42.791Z,35.25
2018-07-02T08:51:09.647Z,35.50
2018-07-02T08:53:36.507Z,34.86
2018-07-02T08:56:03.380Z,34.86
2018-07-02T08:58:30.244Z,34.56
2018-07-02T09:00:57.104Z,34.01
2018-07-02T09:03:24.005Z,35.10
2018-07-02T09:05:50.867Z,33.94
2018-07-02T09:08:17.731Z,34.65
2018-07-02T09:10:44.607Z,35.25
2018-07-02T09:13:11.491Z,34.27
2018-07-02T09:15:38.352Z,34.00
2018-07-02T09:18:05.219Z,32.99
2018-07-02T09:20:32.088Z,33.54
2018-07-02T09:22:58.964Z,33.43
2018-07-02T09:25:25.816Z,34.53
2018-07-02T09:27:52.708Z,32.40
2018-07-02T09:30:19.568Z,34.29
2018-07-02T09:32:46.430Z,33.40
2018-07-02T09:35:13.315Z,33.08
2018-07-02T09:37:40.300Z,32.85
2018-07-02T09:40:07.191Z,33.80
2018-07-02T09:42:34.059Z,32.83
2018-07-02T09:45:00.920Z,31.12
2018-07-02T09:47:27.823Z,32.40
2018-07-02T09:49:54.691Z,31.53
2018-07-02T09:52:21.553Z,33.12
2018-07-02T09:54:48.420Z,32.72
2018-07-02T09:57:15.284Z,31.73
2018-07-02T10:11:09.871Z,33.07
2018-07-02T10:13:36.789Z,33.14
2018-07-02T10:16:03.673Z,31.54
2018-07-02T10:21:05.347Z,30.80
2018-07-02T10:23:37.331Z,31.68
2018-07-02T10:26:00.941Z,31.79
2018-07-02T10:28:27.753Z,30.83
2018-07-02T10:30:54.718Z,30.46
2018-07-02T10:33:21.518Z,31.02
2018-07-02T10:35:48.398Z,31.79
2018-07-02T10:38:15.279Z,31.96
2018-07-02T10:40:42.235Z,31.33
2018-07-02T10:43:09.123Z,31.74
2018-07-02T10:45:36.051Z,30.69
2018-07-02T10:48:02.973Z,32.47
2018-07-02T10:50:29.857Z,31.11
2018-07-02T10:52:56.833Z,31.05
2018-07-02T10:55:23.692Z,30.94
2018-07-02T10:57:50.608Z,31.41
2018-07-02T11:00:17.471Z,30.76
2018-07-02T11:02:44.340Z,30.38
2018-07-02T11:05:11.204Z,30.58
2018-07-02T11:07:38.104Z,29.77
2018-07-02T11:10:05.056Z,30.21
2018-07-02T11:12:31.951Z,29.97
2018-07-02T11:14:59.299Z,30.00
2018-07-02T11:17:26.156Z,29.99
2018-07-02T11:19:53.039Z,30.24
2018-07-02T11:22:19.911Z,31.25
2018-07-02T11:24:46.792Z,30.15
2018-07-02T11:27:13.661Z,29.62
2018-07-02T11:29:40.569Z,29.51
2018-07-02T11:32:07.428Z,27.55
2018-07-02T11:34:34.397Z,28.38
2018-07-02T11:37:01.340Z,28.79
2018-07-02T11:39:28.239Z,28.74
2018-07-02T11:41:55.128Z,28.84
2018-07-02T11:44:22.005Z,29.99
2018-07-02T11:46:48.888Z,26.77
2018-07-02T11:49:15.787Z,28.37
2018-07-02T11:51:42.728Z,28.94
2018-07-02T11:54:09.591Z,28.15
2018-07-02T11:56:36.472Z,27.87
2018-07-02T11:59:03.398Z,27.54
2018-07-02T12:01:30.344Z,28.19
2018-07-02T12:03:57.210Z,29.11
2018-07-02T12:06:24.148Z,29.74
2018-07-02T12:08:51.031Z,27.32
2018-07-02T12:11:17.915Z,26.47
2018-07-02T12:13:44.800Z,27.10
2018-07-02T12:16:11.706Z,26.99
2018-07-02T12:18:38.579Z,27.17
2018-07-02T12:21:05.591Z,29.01
2018-07-02T12:23:32.472Z,27.38
2018-07-02T12:26:02.603Z,28.00
2018-07-02T12:28:29.537Z,27.89
2018-07-02T12:30:57.213Z,25.85
2018-07-02T12:33:24.201Z,28.31
2018-07-02T12:35:51.131Z,27.24
2018-07-02T12:38:18.016Z,28.46
2018-07-02T12:40:44.880Z,27.54
2018-07-02T12:43:11.892Z,26.99
2018-07-02T12:45:38.777Z,25.73
2018-07-02T12:48:05.661Z,26.35
2018-07-02T12:50:32.696Z,26.54
2018-07-02T12:52:59.583Z,26.03
2018-07-02T12:55:26.508Z,27.65
2018-07-02T12:57:53.379Z,26.04
2018-07-02T13:00:20.269Z,26.96
2018-07-02T13:02:47.136Z,26.25
2018-07-02T13:05:14.028Z,26.62
2018-07-02T13:07:40.907Z,25.34
2018-07-02T13:10:07.876Z,25.31
2018-07-02T13:12:34.832Z,25.29
2018-07-02T13:15:01.696Z,25.55
2018-07-02T13:17:28.599Z,25.46
2018-07-02T13:19:55.567Z,25.56
2018-07-02T13:22:22.467Z,23.93
2018-07-02T13:24:49.822Z,24.32
2018-07-02T13:27:16.701Z,24.48
2018-07-02T13:29:43.578Z,24.87
2018-07-02T13:32:11.749Z,23.99
2018-07-02T13:34:38.650Z,24.20
2018-07-02T13:37:06.711Z,24.90
2018-07-02T13:39:33.827Z,25.24
2018-07-02T13:42:00.740Z,24.08
2018-07-02T13:44:27.621Z,25.16
2018-07-02T13:46:54.523Z,24.57
2018-07-02T13:49:21.379Z,24.26
2018-07-02T13:51:48.294Z,22.40
2018-07-02T13:54:15.151Z,24.08
2018-07-02T13:56:42.057Z,23.35
2018-07-02T13:59:08.980Z,22.86
2018-07-02T14:01:35.870Z,23.75
2018-07-02T14:04:02.748Z,23.80
2018-07-02T14:06:29.656Z,23.13
2018-07-02T14:08:56.519Z,23.97
2018-07-02T14:11:23.397Z,23.19
2018-07-02T14:13:50.278Z,24.77
2018-07-02T14:16:17.578Z,25.00
2018-07-02T14:18:44.550Z,24.47
2018-07-02T14:21:11.453Z,23.04
2018-07-02T14:23:38.372Z,23.98
2018-07-02T14:26:05.383Z,23.01
2018-07-02T14:28:32.263Z,22.60
2018-07-02T14:30:59.159Z,23.35
2018-07-02T14:33:26.048Z,23.92
2018-07-02T14:35:53.012Z,23.00
2018-07-02T14:38:19.939Z,21.83
2018-07-02T14:40:46.816Z,19.94
2018-07-02T14:43:13.777Z,20.02
2018-07-02T14:45:40.671Z,20.13
2018-07-02T14:48:07.551Z,18.21
2018-07-02T14:50:34.461Z,19.12
2018-07-02T14:53:01.343Z,19.10
2018-07-02T14:55:28.196Z,19.50
2018-07-02T14:57:55.109Z,18.62
2018-07-02T15:00:21.980Z,18.77
2018-07-02T15:02:49.951Z,18.12
2018-07-02T15:05:16.830Z,19.57
2018-07-02T15:07:44.207Z,17.55
2018-07-02T15:10:11.076Z,17.04
2018-07-02T15:12:37.956Z,17.13
2018-07-02T15:15:04.989Z,16.08
2018-07-02T15:17:31.964Z,17.79
2018-07-02T15:19:58.912Z,17.71
2018-07-02T15:22:25.792Z,16.61
2018-07-02T15:24:52.695Z,16.29
2018-07-02T15:27:20.567Z,16.98
2018-07-02T15:29:47.525Z,16.41
2018-07-02T15:32:14.492Z,18.40
2018-07-02T15:34:41.449Z,17.74
2018-07-02T15:37:08.320Z,17.20
2018-07-02T15:39:35.261Z,17.53
2018-07-02T15:42:02.082Z,16.27
2018-07-02T15:44:28.975Z,16.16
2018-07-02T15:46:55.858Z,15.23
2018-07-02T15:49:22.713Z,15.51
2018-07-02T15:51:49.615Z,15.55
2018-07-02T15:54:16.609Z,16.36
2018-07-02T15:56:43.336Z,18.42
2018-07-02T15:59:10.199Z,16.98
2018-07-02T16:01:37.059Z,16.60
2018-07-02T16:04:03.991Z,16.42
2018-07-02T16:06:30.845Z,17.47
2018-07-02T16:08:57.719Z,17.30
2018-07-02T16:11:24.604Z,16.95
2018-07-02T16:13:51.543Z,17.89
2018-07-02T16:16:18.511Z,17.33
2018-07-02T16:18:45.397Z,16.54
2018-07-02T16:21:12.296Z,17.23
2018-07-02T16:23:39.162Z,17.55
2018-07-02T16:26:06.054Z,17.87
2018-07-02T16:28:32.986Z,18.07
2018-07-02T16:30:59.859Z,16.59
2018-07-02T16:33:26.719Z,17.30
2018-07-02T16:35:53.627Z,16.13
2018-07-02T16:38:20.843Z,17.12
2018-07-02T16:40:47.727Z,16.78
2018-07-02T16:43:14.600Z,16.57
2018-07-02T16:45:41.524Z,16.95
2018-07-02T16:48:08.431Z,16.94
2018-07-02T16:50:35.397Z,16.94
2018-07-02T16:53:02.464Z,16.48
2018-07-02T16:55:29.403Z,17.20
2018-07-02T16:57:56.316Z,16.94
2018-07-02T17:00:23.227Z,17.60
2018-07-02T17:02:50.164Z,17.85
2018-07-02T17:05:17.032Z,16.78
2018-07-02T17:07:43.975Z,16.57
2018-07-02T17:10:10.840Z,17.45
2018-07-02T17:12:37.748Z,17.11
2018-07-02T17:15:05.043Z,16.52
2018-07-02T17:17:31.938Z,17.46
2018-07-02T17:19:58.808Z,16.26
2018-07-02T17:22:25.752Z,16.57
2018-07-02T17:24:52.663Z,17.78
2018-07-02T17:27:19.560Z,16.79
2018-07-02T17:29:46.508Z,17.38
2018-07-02T17:32:13.428Z,16.16
2018-07-02T17:34:40.380Z,15.67
2018-07-02T17:37:07.258Z,15.70
2018-07-02T17:39:34.188Z,16.71
2018-07-02T17:42:01.100Z,16.49
2018-07-02T17:44:27.939Z,17.53
2018-07-02T17:46:54.924Z,17.03
2018-07-02T17:49:21.790Z,16.70
2018-07-02T17:51:48.667Z,16.57
2018-07-02T17:54:15.543Z,17.74
2018-07-02T17:56:42.444Z,18.44
2018-07-02T17:59:09.359Z,17.81
2018-07-02T18:01:36.198Z,17.70
2018-07-02T18:04:03.086Z,17.20
2018-07-02T18:06:29.968Z,18.07
2018-07-02T18:08:56.888Z,17.83
2018-07-02T18:11:23.748Z,18.46
2018-07-02T18:13:50.630Z,17.78
2018-07-02T18:16:17.970Z,18.70
2018-07-02T18:18:47.850Z,18.70
2018-07-02T18:21:14.715Z,18.44
2018-07-02T18:23:41.675Z,18.68
2018-07-02T18:26:08.562Z,18.92
2018-07-02T18:28:35.594Z,19.29
2018-07-02T18:31:02.468Z,19.94
2018-07-02T18:33:29.338Z,21.10
2018-07-02T18:35:56.267Z,21.39
2018-07-02T18:38:23.160Z,22.32
2018-07-02T18:40:50.208Z,24.06
2018-07-02T18:43:17.172Z,25.96
2018-07-02T18:45:44.056Z,27.18
2018-07-02T18:48:10.939Z,28.25
2018-07-02T18:50:37.820Z,29.05
2018-07-02T18:53:04.701Z,29.95
2018-07-02T18:55:31.574Z,30.83
2018-07-02T18:57:58.443Z,31.52
2018-07-02T19:00:25.318Z,32.30
2018-07-02T19:02:52.206Z,32.47
2018-07-02T19:05:19.086Z,32.10
2018-07-02T19:07:46.015Z,32.85
2018-07-02T19:10:13.030Z,32.60
2018-07-02T19:12:39.964Z,33.09
2018-07-02T19:15:07.155Z,33.62
2018-07-02T19:17:34.880Z,34.57
2018-07-02T19:20:01.796Z,33.90
2018-07-02T19:22:28.659Z,34.15
2018-07-02T19:24:55.527Z,35.08
2018-07-02T19:27:22.387Z,34.93
2018-07-02T19:29:49.352Z,35.37
2018-07-02T19:32:16.446Z,35.21
2018-07-02T19:34:43.617Z,34.93
2018-07-02T19:37:10.556Z,35.60
2018-07-02T19:39:37.511Z,36.41
2018-07-02T19:42:04.420Z,35.39
2018-07-02T19:44:31.344Z,34.98
2018-07-02T19:46:58.211Z,34.68
2018-07-02T19:49:25.129Z,35.53
2018-07-02T19:51:52.663Z,35.03
2018-07-02T19:54:20.101Z,35.99
2018-07-02T19:56:46.987Z,35.33
2018-07-02T19:59:13.851Z,36.68
2018-07-02T20:01:40.751Z,37.53
2018-07-02T20:04:07.666Z,37.08
2018-07-02T20:06:34.604Z,37.63
2018-07-02T20:09:03.372Z,37.63
2018-07-02T20:11:30.239Z,37.66
2018-07-02T20:13:57.219Z,37.60
2018-07-02T20:16:24.175Z,37.73
2018-07-02T20:18:51.053Z,39.00
2018-07-02T20:21:17.919Z,38.45
2018-07-02T20:23:44.959Z,38.56
2018-07-02T20:26:12.152Z,38.10
2018-07-02T20:28:39.116Z,38.18
2018-07-02T20:31:06.706Z,38.93
2018-07-02T20:33:35.571Z,37.89
2018-07-02T20:36:06.267Z,39.41
2018-07-02T20:38:33.177Z,39.98
2018-07-02T20:41:00.108Z,41.38
2018-07-02T20:43:27.005Z,39.99
2018-07-02T20:45:53.920Z,38.76
2018-07-02T20:48:20.981Z,39.06
2018-07-02T20:50:47.896Z,39.78
2018-07-02T20:53:14.763Z,39.12
2018-07-02T20:55:41.669Z,39.96
2018-07-02T20:58:09.471Z,40.03
2018-07-02T21:00:36.332Z,39.63
2018-07-02T21:03:03.260Z,42.54
2018-07-02T21:05:30.483Z,42.58
2018-07-02T21:07:57.607Z,43.59
2018-07-02T21:10:24.574Z,41.38
2018-07-02T21:12:51.383Z,42.60
2018-07-02T21:15:18.247Z,44.97
2018-07-02T21:17:45.117Z,44.34
2018-07-02T21:20:11.994Z,44.85
2018-07-02T21:22:38.883Z,44.82
2018-07-02T21:25:05.811Z,45.30
2018-07-02T21:27:32.667Z,45.83
2018-07-02T21:30:02.418Z,45.73
2018-07-02T21:32:29.290Z,45.58
2018-07-02T21:34:56.219Z,44.62
2018-07-02T21:37:23.083Z,44.95
2018-07-02T21:39:49.941Z,45.95
2018-07-02T21:42:16.998Z,45.80
2018-07-02T21:44:43.724Z,49.45
2018-07-02T21:47:10.596Z,50.45
2018-07-02T21:49:37.466Z,49.78
2018-07-02T21:52:04.323Z,49.12
2018-07-02T21:54:31.259Z,49.23
2018-07-02T21:56:58.111Z,48.09
2018-07-02T21:59:25.819Z,47.71
2018-07-02T22:01:52.729Z,48.08
2018-07-02T22:04:19.639Z,48.47
2018-07-02T22:06:46.835Z,48.86
2018-07-02T22:09:16.768Z,48.19
2018-07-02T22:11:43.625Z,49.11
2018-07-02T22:14:10.488Z,49.23
2018-07-02T22:16:37.367Z,49.18
2018-07-02T22:19:06.548Z,50.29
2018-07-02T22:21:33.488Z,50.78
2018-07-02T22:24:00.348Z,50.99
2018-07-02T22:26:31.279Z,51.17
2018-07-02T22:28:58.504Z,52.19
2018-07-02T22:31:27.384Z,53.16
2018-07-02T22:33:54.259Z,52.75
2018-07-02T22:36:21.141Z,53.35
2018-07-02T22:38:48.027Z,52.77
2018-07-02T22:41:14.963Z,53.24
2018-07-02T22:43:41.871Z,53.98
2018-07-02T22:46:08.707Z,53.98
2018-07-02T22:48:35.576Z,55.38
2018-07-02T22:51:02.427Z,54.50
2018-07-02T22:53:29.308Z,55.62
2018-07-02T22:55:58.482Z,54.77
2018-07-02T22:58:25.367Z,54.00
2018-07-02T23:00:52.340Z,55.47
2018-07-02T23:03:19.151Z,56.39
2018-07-02T23:05:46.035Z,54.43
2018-07-02T23:08:12.976Z,55.34
2018-07-02T23:10:39.861Z,54.65
2018-07-02T23:13:06.731Z,54.46
2018-07-02T23:15:33.619Z,55.47
2018-07-02T23:18:00.527Z,54.26
2018-07-02T23:20:27.459Z,55.41
2018-07-02T23:22:59.750Z,55.42
2018-07-02T23:25:27.436Z,55.42
2018-07-02T23:27:55.125Z,55.59
2018-07-02T23:30:22.035Z,56.28
2018-07-02T23:32:49.267Z,56.91
2018-07-02T23:35:16.879Z,56.40
2018-07-02T23:37:43.751Z,56.12
2018-07-02T23:40:10.656Z,55.77
2018-07-02T23:42:37.516Z,55.39
2018-07-02T23:45:04.379Z,55.88
2018-07-02T23:47:31.253Z,55.17
2018-07-02T23:49:58.119Z,55.32
2018-07-02T23:52:25.072Z,54.62
2018-07-02T23:54:51.965Z,54.32
2018-07-02T23:57:18.835Z,54.87
2018-07-02T23:59:45.699Z,54.68
